createdAt,value
2018-05-12T00:02:15.795Z,10.70
2018-05-12T00:04:43.242Z,10.70
2018-05-12T00:07:10.698Z,10.60
2018-05-12T00:09:38.917Z,10.40
2018-05-12T00:12:07.154Z,10.30
2018-05-12T00:14:34.594Z,10.30
2018-05-12T00:17:02.057Z,10.30
2018-05-12T00:19:29.519Z,10.30
2018-05-12T00:21:56.979Z,10.40
2018-05-12T00:24:24.438Z,10.40
2018-05-12T00:26:51.903Z,10.40
2018-05-12T00:29:19.350Z,10.40
2018-05-12T00:31:46.809Z,10.50
2018-05-12T00:34:14.287Z,10.60
2018-05-12T00:36:41.725Z,10.60
2018-05-12T00:39:09.174Z,10.60
2018-05-12T00:41:36.637Z,10.50
2018-05-12T00:44:04.090Z,10.50
2018-05-12T00:46:31.539Z,10.20
2018-05-12T00:48:58.989Z,10.20
2018-05-12T00:51:26.562Z,10.20
2018-05-12T00:53:54.018Z,10.20
2018-05-12T00:56:21.478Z,10.30
2018-05-12T00:58:48.957Z,10.30
2018-05-12T01:01:16.402Z,10.30
2018-05-12T01:03:44.667Z,10.30
2018-05-12T01:06:12.117Z,10.30
2018-05-12T01:08:39.575Z,10.30
2018-05-12T01:11:07.038Z,10.40
2018-05-12T01:13:34.639Z,10.40
2018-05-12T01:16:02.589Z,10.40
2018-05-12T01:18:30.043Z,10.30
2018-05-12T01:20:57.498Z,10.30
2018-05-12T01:23:24.943Z,10.30
2018-05-12T01:25:52.407Z,10.40
2018-05-12T01:28:19.856Z,10.40
2018-05-12T01:30:47.310Z,10.20
2018-05-12T01:33:14.762Z,10.10
2018-05-12T01:35:42.219Z,9.90
2018-05-12T01:38:09.663Z,9.80
2018-05-12T01:40:37.115Z,9.80
2018-05-12T01:43:04.571Z,9.90
2018-05-12T01:45:32.026Z,10.00
2018-05-12T01:47:59.486Z,10.10
2018-05-12T01:50:26.939Z,10.00
2018-05-12T01:52:54.415Z,10.00
2018-05-12T01:55:21.857Z,9.90
2018-05-12T01:57:49.311Z,9.90
2018-05-12T02:00:16.764Z,9.90
2018-05-12T02:02:44.210Z,10.00
2018-05-12T02:05:11.670Z,10.00
2018-05-12T02:07:39.138Z,10.00
2018-05-12T02:10:06.607Z,10.10
2018-05-12T02:12:34.068Z,9.90
2018-05-12T02:15:01.514Z,9.60
2018-05-12T02:17:28.966Z,9.20
2018-05-12T02:19:56.422Z,9.10
2018-05-12T02:22:23.875Z,9.10
2018-05-12T02:24:51.341Z,9.20
2018-05-12T02:27:19.767Z,9.30
2018-05-12T02:29:47.230Z,9.40
2018-05-12T02:32:14.683Z,9.30
2018-05-12T02:34:42.139Z,9.50
2018-05-12T02:37:09.582Z,9.50
2018-05-12T02:39:37.031Z,9.40
2018-05-12T02:42:04.486Z,9.30
2018-05-12T02:44:31.933Z,9.40
2018-05-12T02:47:00.396Z,9.50
2018-05-12T02:49:27.832Z,9.60
2018-05-12T02:51:55.282Z,9.60
2018-05-12T02:54:24.782Z,9.60
2018-05-12T02:56:52.995Z,9.70
2018-05-12T02:59:20.454Z,9.70
2018-05-12T03:01:47.902Z,9.60
2018-05-12T03:04:15.362Z,9.60
2018-05-12T03:06:42.818Z,9.70
2018-05-12T03:09:10.263Z,9.80
2018-05-12T03:11:37.711Z,9.90
2018-05-12T03:14:05.178Z,9.90
2018-05-12T03:16:32.639Z,9.90
2018-05-12T03:19:00.102Z,10.00
2018-05-12T03:21:27.547Z,9.80
2018-05-12T03:23:55.006Z,9.90
2018-05-12T03:26:22.450Z,10.00
2018-05-12T03:28:50.674Z,10.20
2018-05-12T03:31:18.127Z,10.10
2018-05-12T03:33:45.597Z,10.00
2018-05-12T03:36:13.052Z,9.90
2018-05-12T03:38:40.514Z,9.90
2018-05-12T03:41:07.966Z,9.90
2018-05-12T03:43:35.518Z,10.00
2018-05-12T03:46:02.958Z,9.90
2018-05-12T03:48:30.409Z,9.80
2018-05-12T03:50:57.884Z,9.90
2018-05-12T03:53:25.982Z,9.90
2018-05-12T03:55:53.425Z,9.80
2018-05-12T03:58:20.883Z,9.80
2018-05-12T04:00:48.342Z,9.90
2018-05-12T04:03:15.791Z,9.90
2018-05-12T04:05:55.110Z,9.60
2018-05-12T04:08:34.283Z,9.50
2018-05-12T04:11:13.748Z,9.50
2018-05-12T04:13:41.966Z,9.70
2018-05-12T04:16:09.422Z,9.70
2018-05-12T04:18:38.488Z,10.00
2018-05-12T04:21:05.954Z,10.00
2018-05-12T04:23:33.407Z,10.10
2018-05-12T04:26:00.867Z,10.30
2018-05-12T04:28:28.326Z,10.40
2018-05-12T04:30:55.780Z,10.50
2018-05-12T04:33:23.234Z,10.60
2018-05-12T04:35:50.691Z,10.60
2018-05-12T04:38:18.153Z,10.60
2018-05-12T04:40:45.606Z,10.80
2018-05-12T04:43:13.078Z,10.90
2018-05-12T04:45:40.518Z,11.00
2018-05-12T04:48:08.677Z,11.10
2018-05-12T04:50:36.123Z,11.30
2018-05-12T04:53:04.351Z,11.50
2018-05-12T04:55:31.810Z,11.50
2018-05-12T04:57:59.998Z,11.40
2018-05-12T05:00:28.344Z,11.20
2018-05-12T05:02:56.714Z,11.30
2018-05-12T05:05:24.350Z,11.80
2018-05-12T05:07:51.803Z,12.40
2018-05-12T05:10:20.022Z,13.30
2018-05-12T05:12:48.414Z,13.30
2018-05-12T05:15:15.953Z,13.50
2018-05-12T05:17:43.318Z,13.90
2018-05-12T05:20:10.770Z,14.20
2018-05-12T05:22:38.234Z,14.40
2018-05-12T05:25:05.682Z,14.40
2018-05-12T05:27:33.138Z,14.50
2018-05-12T05:30:00.591Z,14.70
2018-05-12T05:32:28.053Z,14.90
2018-05-12T05:34:56.282Z,15.10
2018-05-12T05:37:24.498Z,15.30
2018-05-12T05:39:51.951Z,15.20
2018-05-12T05:42:19.430Z,15.30
2018-05-12T05:44:46.967Z,15.40
2018-05-12T05:47:14.422Z,15.40
2018-05-12T05:49:41.874Z,15.70
2018-05-12T05:52:09.343Z,16.00
2018-05-12T05:54:36.773Z,16.20
2018-05-12T05:57:04.241Z,16.40
2018-05-12T05:59:31.771Z,16.80
2018-05-12T06:01:59.150Z,17.00
2018-05-12T06:04:26.598Z,17.10
2018-05-12T06:06:54.125Z,17.20
2018-05-12T06:09:21.531Z,17.10
2018-05-12T06:11:48.991Z,17.00
2018-05-12T06:14:16.499Z,17.20
2018-05-12T06:16:43.938Z,17.50
2018-05-12T06:19:11.399Z,17.60
2018-05-12T06:21:38.861Z,17.90
2018-05-12T06:24:06.325Z,18.40
2018-05-12T06:26:34.067Z,18.50
2018-05-12T06:29:01.538Z,18.70
2018-05-12T06:31:28.990Z,18.70
2018-05-12T06:33:56.446Z,18.60
2018-05-12T06:36:23.903Z,18.60
2018-05-12T06:38:51.372Z,18.60
2018-05-12T06:41:18.822Z,18.70
2018-05-12T06:43:46.269Z,18.90
2018-05-12T06:46:13.736Z,18.90
2018-05-12T06:48:41.190Z,18.90
2018-05-12T06:51:08.641Z,19.00
2018-05-12T06:53:36.459Z,19.50
2018-05-12T06:56:03.849Z,20.30
2018-05-12T06:58:31.309Z,21.20
2018-05-12T07:00:59.153Z,22.00
2018-05-12T07:03:26.620Z,22.80
2018-05-12T07:05:54.071Z,23.30
2018-05-12T07:08:21.521Z,23.10
2018-05-12T07:10:48.966Z,22.70
2018-05-12T07:13:16.437Z,23.00
2018-05-12T07:15:43.891Z,23.30
2018-05-12T07:18:11.339Z,23.60
2018-05-12T07:20:38.794Z,23.40
2018-05-12T07:23:06.246Z,23.40
2018-05-12T07:25:33.709Z,23.70
2018-05-12T07:28:01.159Z,24.30
2018-05-12T07:30:28.618Z,24.80
2018-05-12T07:32:56.074Z,25.30
2018-05-12T07:35:23.526Z,25.40
2018-05-12T07:37:50.966Z,25.40
2018-05-12T07:40:19.195Z,26.00
2018-05-12T07:42:47.357Z,26.00
2018-05-12T07:45:14.811Z,26.00
2018-05-12T07:47:42.275Z,26.20
2018-05-12T07:50:09.727Z,26.40
2018-05-12T07:52:37.169Z,26.80
2018-05-12T07:55:04.637Z,26.90
2018-05-12T07:57:32.080Z,27.30
2018-05-12T07:59:59.542Z,27.80
2018-05-12T08:02:26.995Z,27.50
2018-05-12T08:04:54.441Z,27.50
2018-05-12T08:07:21.903Z,27.30
2018-05-12T08:09:49.350Z,27.10
2018-05-12T08:12:17.578Z,27.30
2018-05-12T08:14:45.361Z,27.20
2018-05-12T08:17:12.806Z,27.00
2018-05-12T08:19:40.263Z,27.90
2018-05-12T08:22:07.710Z,28.30
2018-05-12T08:24:35.159Z,28.10
2018-05-12T08:27:03.235Z,27.00
2018-05-12T08:29:30.693Z,26.20
2018-05-12T08:31:58.150Z,25.60
2018-05-12T08:34:25.626Z,25.50
2018-05-12T08:36:53.087Z,25.90
2018-05-12T08:39:20.538Z,25.80
2018-05-12T08:41:47.988Z,26.10
2018-05-12T08:44:15.449Z,26.60
2018-05-12T08:46:42.903Z,26.30
2018-05-12T08:49:10.639Z,26.30
2018-05-12T08:51:38.088Z,25.90
2018-05-12T08:54:05.530Z,26.20
2018-05-12T08:56:32.990Z,26.50
2018-05-12T08:59:00.443Z,26.50
2018-05-12T09:01:28.688Z,26.20
2018-05-12T09:03:56.123Z,26.20
2018-05-12T09:06:23.574Z,25.00
2018-05-12T09:08:51.028Z,24.70
2018-05-12T09:11:18.470Z,24.80
2018-05-12T09:13:45.922Z,24.70
2018-05-12T09:16:13.383Z,24.30
2018-05-12T09:18:40.836Z,24.70
2018-05-12T09:21:08.294Z,24.80
2018-05-12T09:23:35.750Z,24.60
2018-05-12T09:26:03.243Z,24.70
2018-05-12T09:28:30.691Z,25.00
2018-05-12T09:30:58.142Z,25.10
2018-05-12T09:33:25.602Z,24.50
2018-05-12T09:35:53.062Z,24.70
2018-05-12T09:38:21.300Z,24.50
2018-05-12T09:40:48.738Z,24.50
2018-05-12T09:43:17.251Z,25.40
2018-05-12T09:45:44.696Z,25.40
2018-05-12T09:48:12.134Z,26.50
2018-05-12T09:50:40.377Z,26.20
2018-05-12T09:53:07.820Z,26.10
2018-05-12T09:55:35.263Z,26.40
2018-05-12T09:58:03.482Z,26.80
2018-05-12T10:00:30.937Z,25.70
2018-05-12T10:02:58.418Z,25.00
2018-05-12T10:05:25.874Z,25.30
2018-05-12T10:07:54.086Z,25.20
2018-05-12T10:10:21.579Z,25.20
2018-05-12T10:12:49.105Z,24.90
2018-05-12T10:15:16.894Z,24.40
2018-05-12T10:17:44.393Z,25.10
2018-05-12T10:20:11.846Z,25.60
2018-05-12T10:22:39.285Z,25.20
2018-05-12T10:25:07.501Z,24.70
2018-05-12T10:27:34.956Z,24.70
2018-05-12T10:30:02.413Z,24.90
2018-05-12T10:32:29.850Z,25.60
2018-05-12T10:34:57.328Z,26.00
2018-05-12T10:37:25.122Z,25.10
2018-05-12T10:39:52.558Z,24.10
2018-05-12T10:42:20.022Z,24.20
2018-05-12T10:44:47.536Z,24.40
2018-05-12T10:47:14.919Z,24.10
2018-05-12T10:49:42.371Z,24.20
2018-05-12T10:52:09.834Z,24.60
2018-05-12T10:54:37.291Z,24.70
2018-05-12T10:57:04.753Z,24.40
2018-05-12T10:59:32.206Z,23.90
2018-05-12T11:01:59.702Z,23.70
2018-05-12T11:04:27.390Z,24.20
2018-05-12T11:06:55.601Z,25.00
2018-05-12T11:09:23.084Z,25.00
2018-05-12T11:11:51.290Z,25.80
2018-05-12T11:14:20.071Z,25.60
2018-05-12T11:16:47.514Z,25.50
2018-05-12T11:19:14.971Z,25.70
2018-05-12T11:21:42.457Z,26.40
2018-05-12T11:24:09.890Z,27.60
2018-05-12T11:26:37.592Z,28.20
2018-05-12T11:29:05.030Z,27.70
2018-05-12T11:31:32.458Z,26.90
2018-05-12T11:34:00.014Z,26.20
2018-05-12T11:36:27.449Z,25.90
2018-05-12T11:38:54.897Z,26.30
2018-05-12T11:41:22.354Z,26.60
2018-05-12T11:43:49.810Z,26.90
2018-05-12T11:46:17.266Z,27.00
2018-05-12T11:48:44.722Z,27.10
2018-05-12T11:51:12.175Z,27.60
2018-05-12T11:53:39.634Z,27.40
2018-05-12T11:56:07.078Z,27.30
2018-05-12T11:58:35.030Z,27.80
2018-05-12T12:01:03.250Z,28.10
2018-05-12T12:03:30.693Z,28.00
2018-05-12T12:05:58.487Z,28.50
2018-05-12T12:08:25.931Z,28.90
2018-05-12T12:10:53.374Z,28.90
2018-05-12T12:13:20.831Z,29.50
2018-05-12T12:15:48.286Z,29.90
2018-05-12T12:18:15.746Z,28.70
2018-05-12T12:20:43.204Z,27.80
2018-05-12T12:23:10.662Z,28.40
2018-05-12T12:25:38.566Z,29.60
2018-05-12T12:28:06.004Z,30.00
2018-05-12T12:30:33.458Z,30.80
2018-05-12T12:33:00.898Z,30.20
2018-05-12T12:35:28.359Z,28.40
2018-05-12T12:37:55.809Z,27.10
2018-05-12T12:40:23.267Z,26.70
2018-05-12T12:42:50.706Z,26.50
2018-05-12T12:45:18.263Z,27.10
2018-05-12T12:47:45.723Z,27.50
2018-05-12T12:50:13.170Z,28.20
2018-05-12T12:52:41.394Z,30.80
2018-05-12T12:55:08.955Z,30.80
2018-05-12T12:57:37.810Z,29.50
2018-05-12T13:00:05.261Z,29.30
2018-05-12T13:02:32.718Z,30.30
2018-05-12T13:05:00.195Z,29.90
2018-05-12T13:07:27.630Z,28.30
2018-05-12T13:09:55.086Z,27.40
2018-05-12T13:12:22.526Z,27.50
2018-05-12T13:14:50.749Z,28.70
2018-05-12T13:17:18.200Z,28.60
2018-05-12T13:19:46.368Z,28.70
2018-05-12T13:22:13.925Z,29.30
2018-05-12T13:24:41.278Z,28.70
2018-05-12T13:27:08.722Z,28.30
2018-05-12T13:29:36.192Z,29.10
2018-05-12T13:32:03.634Z,28.80
2018-05-12T13:34:31.080Z,27.90
2018-05-12T13:36:59.399Z,28.30
2018-05-12T13:39:26.846Z,28.30
2018-05-12T13:41:54.299Z,28.10
2018-05-12T13:44:21.754Z,28.20
2018-05-12T13:46:49.211Z,28.80
2018-05-12T13:49:16.650Z,29.60
2018-05-12T13:51:44.098Z,29.80
2018-05-12T13:54:12.893Z,29.20
2018-05-12T13:56:40.348Z,29.10
2018-05-12T13:59:07.785Z,28.20
2018-05-12T14:01:36.019Z,28.20
2018-05-12T14:04:03.842Z,28.20
2018-05-12T14:06:31.306Z,27.90
2018-05-12T14:08:58.772Z,27.70
2018-05-12T14:11:26.210Z,27.60
2018-05-12T14:13:54.445Z,26.20
2018-05-12T14:16:22.776Z,26.20
2018-05-12T14:18:50.228Z,25.80
2018-05-12T14:21:17.682Z,25.80
2018-05-12T14:23:46.331Z,27.00
2018-05-12T14:26:13.795Z,27.00
2018-05-12T14:28:41.238Z,26.60
2018-05-12T14:31:08.685Z,26.70
2018-05-12T14:33:36.139Z,26.80
2018-05-12T14:36:03.592Z,27.20
2018-05-12T14:38:31.311Z,27.70
2018-05-12T14:40:59.527Z,27.60
2018-05-12T14:43:26.968Z,27.60
2018-05-12T14:45:54.436Z,27.80
2018-05-12T14:48:21.883Z,28.00
2018-05-12T14:50:49.894Z,28.30
2018-05-12T14:53:17.342Z,28.20
2018-05-12T14:55:44.814Z,29.00
2018-05-12T14:58:12.262Z,29.40
2018-05-12T15:00:39.706Z,29.10
2018-05-12T15:03:07.162Z,29.60
2018-05-12T15:05:34.602Z,30.20
2018-05-12T15:08:02.073Z,29.70
2018-05-12T15:10:29.523Z,29.70
2018-05-12T15:12:56.966Z,29.20
2018-05-12T15:15:24.421Z,28.40
2018-05-12T15:17:52.803Z,28.90
2018-05-12T15:20:20.262Z,29.20
2018-05-12T15:22:47.709Z,29.60
2018-05-12T15:25:15.146Z,28.90
2018-05-12T15:27:43.362Z,26.60
2018-05-12T15:30:10.812Z,26.60
2018-05-12T15:32:38.274Z,26.00
2018-05-12T15:35:05.714Z,25.70
2018-05-12T15:37:33.173Z,25.60
2018-05-12T15:40:00.611Z,25.60
2018-05-12T15:42:28.087Z,25.80
2018-05-12T15:44:55.539Z,26.10
2018-05-12T15:47:23.002Z,26.10
2018-05-12T15:49:50.521Z,26.70
2018-05-12T15:52:17.919Z,27.20
2018-05-12T15:54:45.370Z,27.30
2018-05-12T15:57:13.318Z,27.00
2018-05-12T15:59:41.414Z,27.00
2018-05-12T16:02:08.874Z,27.20
2018-05-12T16:04:36.736Z,27.50
2018-05-12T16:07:04.178Z,27.60
2018-05-12T16:09:32.059Z,27.30
2018-05-12T16:11:59.518Z,27.00
2018-05-12T16:14:26.989Z,26.80
2018-05-12T16:16:54.466Z,26.40
2018-05-12T16:19:21.923Z,25.60
2018-05-12T16:21:49.375Z,25.00
2018-05-12T16:24:16.826Z,24.40
2018-05-12T16:26:44.279Z,24.10
2018-05-12T16:29:11.771Z,24.10
2018-05-12T16:31:39.209Z,24.20
2018-05-12T16:34:06.643Z,24.00
2018-05-12T16:36:34.092Z,23.90
2018-05-12T16:39:01.555Z,23.70
2018-05-12T16:41:29.002Z,23.70
2018-05-12T16:43:56.458Z,23.70
2018-05-12T16:46:23.914Z,23.80
2018-05-12T16:48:51.379Z,23.90
2018-05-12T16:51:18.854Z,23.90
2018-05-12T16:53:46.630Z,23.90
2018-05-12T16:56:14.083Z,23.90
2018-05-12T16:58:41.522Z,23.70
2018-05-12T17:01:08.997Z,23.50
2018-05-12T17:03:36.434Z,23.60
2018-05-12T17:06:03.903Z,23.80
2018-05-12T17:08:31.357Z,23.90
2018-05-12T17:10:58.803Z,23.70
2018-05-12T17:13:26.262Z,23.70
2018-05-12T17:15:53.726Z,23.50
2018-05-12T17:18:21.186Z,23.60
2018-05-12T17:20:49.154Z,23.70
2018-05-12T17:23:16.667Z,23.70
2018-05-12T17:25:44.043Z,23.70
2018-05-12T17:28:11.501Z,23.60
2018-05-12T17:30:38.939Z,23.60
2018-05-12T17:33:06.404Z,23.70
2018-05-12T17:35:33.838Z,23.70
2018-05-12T17:38:02.046Z,23.70
2018-05-12T17:40:29.503Z,23.70
2018-05-12T17:42:56.946Z,23.70
2018-05-12T17:45:24.418Z,23.70
2018-05-12T17:47:51.875Z,23.50
2018-05-12T17:50:19.337Z,23.50
2018-05-12T17:52:46.786Z,23.40
2018-05-12T17:55:14.246Z,23.20
2018-05-12T17:57:41.690Z,23.00
2018-05-12T18:00:09.158Z,22.80
2018-05-12T18:02:36.602Z,22.60
2018-05-12T18:05:04.046Z,22.30
2018-05-12T18:07:32.266Z,21.80
2018-05-12T18:09:59.701Z,21.80
2018-05-12T18:12:27.163Z,21.60
2018-05-12T18:14:54.618Z,21.50
2018-05-12T18:17:22.116Z,21.40
2018-05-12T18:19:49.537Z,21.30
2018-05-12T18:22:17.880Z,21.10
2018-05-12T18:24:46.100Z,20.80
2018-05-12T18:27:14.441Z,20.70
2018-05-12T18:29:41.899Z,20.50
2018-05-12T18:32:09.338Z,20.20
2018-05-12T18:34:37.605Z,20.00
2018-05-12T18:37:05.006Z,19.90
2018-05-12T18:39:32.463Z,19.70
2018-05-12T18:41:59.935Z,19.50
2018-05-12T18:44:27.388Z,19.40
2018-05-12T18:46:54.853Z,19.30
2018-05-12T18:49:22.479Z,19.20
2018-05-12T18:51:49.979Z,19.10
2018-05-12T18:54:17.427Z,19.00
2018-05-12T18:56:44.944Z,18.90
2018-05-12T18:59:12.326Z,18.80
2018-05-12T19:01:39.779Z,18.80
2018-05-12T19:04:07.261Z,18.80
2018-05-12T19:06:34.702Z,18.70
2018-05-12T19:09:02.151Z,18.70
2018-05-12T19:11:29.615Z,18.60
2018-05-12T19:13:57.067Z,18.60
2018-05-12T19:16:24.876Z,18.60
2018-05-12T19:18:52.322Z,18.70
2018-05-12T19:21:19.761Z,18.80
2018-05-12T19:23:47.216Z,18.80
2018-05-12T19:26:14.661Z,18.80
2018-05-12T19:28:42.115Z,18.50
2018-05-12T19:31:10.019Z,18.20
2018-05-12T19:33:37.483Z,18.20
2018-05-12T19:36:04.922Z,18.00
2018-05-12T19:38:32.739Z,17.80
2018-05-12T19:41:00.192Z,17.70
2018-05-12T19:43:28.410Z,17.60
2018-05-12T19:45:55.869Z,17.60
2018-05-12T19:48:23.323Z,17.60
2018-05-12T19:50:50.764Z,17.60
2018-05-12T19:53:18.224Z,17.60
2018-05-12T19:55:45.680Z,17.60
2018-05-12T19:58:13.134Z,17.60
2018-05-12T20:00:40.587Z,17.60
2018-05-12T20:03:08.049Z,17.60
2018-05-12T20:05:35.500Z,17.40
2018-05-12T20:08:02.946Z,17.10
2018-05-12T20:10:30.386Z,17.00
2018-05-12T20:12:58.602Z,17.10
2018-05-12T20:15:26.055Z,17.10
2018-05-12T20:17:53.790Z,17.10
2018-05-12T20:20:21.235Z,17.10
2018-05-12T20:22:49.966Z,17.40
2018-05-12T20:25:18.886Z,17.40
2018-05-12T20:27:46.344Z,17.50
2018-05-12T20:30:13.783Z,17.40
2018-05-12T20:32:41.238Z,17.20
2018-05-12T20:35:08.697Z,17.10
2018-05-12T20:37:36.572Z,17.30
2018-05-12T20:40:03.998Z,17.30
2018-05-12T20:42:31.456Z,17.30
2018-05-12T20:44:58.907Z,17.30
2018-05-12T20:47:26.368Z,17.30
2018-05-12T20:49:53.820Z,17.30
2018-05-12T20:52:22.583Z,17.20
2018-05-12T20:54:51.194Z,16.90
2018-05-12T20:57:18.663Z,16.80
2018-05-12T20:59:46.115Z,16.70
2018-05-12T21:02:13.567Z,16.60
2018-05-12T21:04:41.030Z,16.70
2018-05-12T21:07:08.477Z,16.80
2018-05-12T21:09:35.922Z,17.00
2018-05-12T21:12:03.374Z,17.20
2018-05-12T21:14:31.186Z,17.10
2018-05-12T21:16:58.644Z,17.00
2018-05-12T21:19:26.095Z,16.80
2018-05-12T21:21:53.553Z,16.70
2018-05-12T21:24:21.006Z,16.60
2018-05-12T21:26:48.458Z,16.60
2018-05-12T21:29:15.904Z,16.70
2018-05-12T21:31:43.372Z,16.70
2018-05-12T21:34:11.406Z,16.70
2018-05-12T21:36:38.856Z,16.70
2018-05-12T21:39:07.070Z,16.80
2018-05-12T21:41:34.527Z,16.70
2018-05-12T21:44:01.979Z,16.70
2018-05-12T21:46:30.367Z,16.70
2018-05-12T21:48:57.834Z,16.70
2018-05-12T21:51:25.336Z,16.70
2018-05-12T21:53:52.792Z,16.60
2018-05-12T21:56:21.007Z,16.70
2018-05-12T21:58:48.458Z,16.70
2018-05-12T22:01:15.917Z,16.60
2018-05-12T22:03:43.358Z,16.60
2018-05-12T22:06:10.831Z,16.60
2018-05-12T22:08:38.273Z,16.60
2018-05-12T22:11:05.715Z,16.60
2018-05-12T22:13:33.938Z,16.60
2018-05-12T22:16:01.392Z,16.60
2018-05-12T22:18:28.879Z,16.50
2018-05-12T22:20:56.619Z,16.50
2018-05-12T22:23:24.066Z,16.50
2018-05-12T22:25:51.515Z,16.50
2018-05-12T22:28:18.989Z,16.50
2018-05-12T22:30:46.442Z,16.30
2018-05-12T22:33:13.883Z,16.20
2018-05-12T22:35:41.348Z,16.10
2018-05-12T22:38:08.794Z,16.10
2018-05-12T22:40:36.247Z,16.00
2018-05-12T22:43:04.217Z,15.80
2018-05-12T22:45:31.681Z,15.80
2018-05-12T22:47:59.135Z,15.80
2018-05-12T22:50:26.591Z,15.70
2018-05-12T22:52:54.030Z,15.70
2018-05-12T22:55:21.474Z,15.70
2018-05-12T22:57:49.706Z,15.80
2018-05-12T23:00:17.601Z,15.70
2018-05-12T23:02:45.037Z,15.70
2018-05-12T23:05:12.504Z,15.80
2018-05-12T23:07:39.942Z,15.80
2018-05-12T23:10:07.481Z,15.70
2018-05-12T23:12:34.851Z,15.30
2018-05-12T23:15:02.970Z,15.30
2018-05-12T23:17:31.978Z,15.20
2018-05-12T23:19:59.426Z,15.20
2018-05-12T23:22:27.654Z,15.00
2018-05-12T23:24:55.104Z,15.00
2018-05-12T23:27:22.564Z,15.00
2018-05-12T23:29:49.998Z,15.10
2018-05-12T23:32:17.463Z,15.20
2018-05-12T23:34:44.911Z,15.10
2018-05-12T23:37:12.390Z,15.10
2018-05-12T23:39:39.839Z,15.00
2018-05-12T23:42:07.277Z,14.90
2018-05-12T23:44:34.739Z,14.80
2018-05-12T23:47:02.178Z,14.90
2018-05-12T23:49:29.624Z,14.70
2018-05-12T23:51:57.854Z,14.90
2018-05-12T23:54:25.295Z,14.90
2018-05-12T23:56:52.762Z,14.90
2018-05-12T23:59:20.203Z,14.90
